sensor_id;sensor_type;location;lat;lon;timestamp;P1;durP1;ratioP1;P2;durP2;ratioP2
13171;SDS011;6651;53.200;10.432;2023-04-29T00:02:03;23.95;;;21.75;;
13171;SDS011;6651;53.200;10.432;2023-04-29T00:04:29;24.08;;;21.88;;
13171;SDS011;6651;53.200;10.432;2023-04-29T00:06:55;23.77;;;21.50;;
13171;SDS011;6651;53.200;10.432;2023-04-29T00:09:21;22.25;;;20.15;;
13171;SDS011;6651;53.200;10.432;2023-04-29T00:11:47;21.92;;;19.92;;
13171;SDS011;6651;53.200;10.432;2023-04-29T00:14:14;21.77;;;19.58;;
13171;SDS011;6651;53.200;10.432;2023-04-29T00:16:40;22.25;;;20.25;;
13171;SDS011;6651;53.200;10.432;2023-04-29T00:19:06;21.50;;;19.50;;
13171;SDS011;6651;53.200;10.432;2023-04-29T00:21:32;20.73;;;18.83;;
13171;SDS011;6651;53.200;10.432;2023-04-29T00:23:59;19.98;;;18.15;;
13171;SDS011;6651;53.200;10.432;2023-04-29T00:26:25;20.35;;;18.23;;
13171;SDS011;6651;53.200;10.432;2023-04-29T00:28:51;19.45;;;17.55;;
13171;SDS011;6651;53.200;10.432;2023-04-29T00:31:17;20.90;;;18.90;;
13171;SDS011;6651;53.200;10.432;2023-04-29T00:33:43;19.33;;;17.52;;
13171;SDS011;6651;53.200;10.432;2023-04-29T00:36:09;19.27;;;17.42;;
13171;SDS011;6651;53.200;10.432;2023-04-29T00:38:35;19.13;;;17.30;;
13171;SDS011;6651;53.200;10.432;2023-04-29T00:41:02;19.50;;;17.60;;
13171;SDS011;6651;53.200;10.432;2023-04-29T00:43:28;20.02;;;17.92;;
13171;SDS011;6651;53.200;10.432;2023-04-29T00:45:54;19.17;;;17.23;;
13171;SDS011;6651;53.200;10.432;2023-04-29T00:48:20;19.38;;;17.48;;
13171;SDS011;6651;53.200;10.432;2023-04-29T00:50:46;20.23;;;18.17;;
13171;SDS011;6651;53.200;10.432;2023-04-29T00:53:12;20.20;;;18.08;;
13171;SDS011;6651;53.200;10.432;2023-04-29T00:55:39;20.15;;;18.10;;
13171;SDS011;6651;53.200;10.432;2023-04-29T00:58:06;19.75;;;17.75;;
13171;SDS011;6651;53.200;10.432;2023-04-29T01:00:34;19.35;;;17.45;;
13171;SDS011;6651;53.200;10.432;2023-04-29T01:03:01;20.40;;;18.30;;
13171;SDS011;6651;53.200;10.432;2023-04-29T01:05:28;19.05;;;17.13;;
13171;SDS011;6651;53.200;10.432;2023-04-29T01:15:42;21.00;;;18.80;;
13171;SDS011;6651;53.200;10.432;2023-04-29T01:18:25;19.85;;;17.95;;
13171;SDS011;6651;53.200;10.432;2023-04-29T01:20:51;22.02;;;19.73;;
13171;SDS011;6651;53.200;10.432;2023-04-29T01:23:17;21.05;;;18.95;;
13171;SDS011;6651;53.200;10.432;2023-04-29T01:25:43;20.30;;;18.40;;
13171;SDS011;6651;53.200;10.432;2023-04-29T01:38:48;19.98;;;17.80;;
13171;SDS011;6651;53.200;10.432;2023-04-29T01:41:19;19.75;;;17.52;;
13171;SDS011;6651;53.200;10.432;2023-04-29T01:43:49;18.52;;;16.73;;
13171;SDS011;6651;53.200;10.432;2023-04-29T01:46:16;19.73;;;17.70;;
13171;SDS011;6651;53.200;10.432;2023-04-29T01:48:45;18.48;;;16.65;;
13171;SDS011;6651;53.200;10.432;2023-04-29T01:51:11;19.50;;;17.60;;
13171;SDS011;6651;53.200;10.432;2023-04-29T01:53:37;18.55;;;16.65;;
13171;SDS011;6651;53.200;10.432;2023-04-29T01:56:07;19.20;;;17.33;;
13171;SDS011;6651;53.200;10.432;2023-04-29T01:58:33;20.58;;;18.58;;
13171;SDS011;6651;53.200;10.432;2023-04-29T02:00:59;19.45;;;17.55;;
13171;SDS011;6651;53.200;10.432;2023-04-29T02:03:25;20.15;;;17.90;;
13171;SDS011;6651;53.200;10.432;2023-04-29T02:05:51;20.85;;;18.52;;
13171;SDS011;6651;53.200;10.432;2023-04-29T02:08:17;19.58;;;17.58;;
13171;SDS011;6651;53.200;10.432;2023-04-29T02:10:53;19.55;;;17.55;;
13171;SDS011;6651;53.200;10.432;2023-04-29T02:13:19;19.27;;;17.38;;
13171;SDS011;6651;53.200;10.432;2023-04-29T02:15:45;19.25;;;17.27;;
13171;SDS011;6651;53.200;10.432;2023-04-29T02:18:12;19.48;;;17.58;;
13171;SDS011;6651;53.200;10.432;2023-04-29T02:20:38;19.73;;;17.75;;
13171;SDS011;6651;53.200;10.432;2023-04-29T02:23:04;19.35;;;17.42;;
13171;SDS011;6651;53.200;10.432;2023-04-29T02:25:30;18.58;;;16.88;;
13171;SDS011;6651;53.200;10.432;2023-04-29T02:27:56;19.20;;;17.25;;
13171;SDS011;6651;53.200;10.432;2023-04-29T02:30:22;18.98;;;17.25;;
13171;SDS011;6651;53.200;10.432;2023-04-29T02:32:48;18.90;;;17.00;;
13171;SDS011;6651;53.200;10.432;2023-04-29T02:35:15;19.17;;;16.42;;
13171;SDS011;6651;53.200;10.432;2023-04-29T02:37:41;18.85;;;16.95;;
13171;SDS011;6651;53.200;10.432;2023-04-29T02:40:07;19.13;;;17.15;;
13171;SDS011;6651;53.200;10.432;2023-04-29T02:42:33;19.00;;;17.10;;
13171;SDS011;6651;53.200;10.432;2023-04-29T02:44:59;18.95;;;16.92;;
13171;SDS011;6651;53.200;10.432;2023-04-29T02:47:25;18.13;;;16.23;;
13171;SDS011;6651;53.200;10.432;2023-04-29T02:49:51;17.23;;;15.43;;
13171;SDS011;6651;53.200;10.432;2023-04-29T02:52:18;16.65;;;14.98;;
13171;SDS011;6651;53.200;10.432;2023-04-29T02:54:44;16.65;;;14.82;;
13171;SDS011;6651;53.200;10.432;2023-04-29T02:57:10;15.40;;;13.90;;
13171;SDS011;6651;53.200;10.432;2023-04-29T02:59:36;16.10;;;14.48;;
13171;SDS011;6651;53.200;10.432;2023-04-29T03:02:02;16.25;;;14.73;;
13171;SDS011;6651;53.200;10.432;2023-04-29T03:04:28;17.08;;;15.38;;
13171;SDS011;6651;53.200;10.432;2023-04-29T03:06:54;16.67;;;14.98;;
13171;SDS011;6651;53.200;10.432;2023-04-29T03:09:21;17.80;;;15.18;;
13171;SDS011;6651;53.200;10.432;2023-04-29T03:11:47;17.02;;;15.32;;
13171;SDS011;6651;53.200;10.432;2023-04-29T03:14:13;16.92;;;15.32;;
13171;SDS011;6651;53.200;10.432;2023-04-29T03:16:39;18.45;;;16.65;;
13171;SDS011;6651;53.200;10.432;2023-04-29T03:19:05;18.15;;;16.30;;
13171;SDS011;6651;53.200;10.432;2023-04-29T03:21:31;18.77;;;16.88;;
13171;SDS011;6651;53.200;10.432;2023-04-29T03:23:57;17.65;;;15.95;;
13171;SDS011;6651;53.200;10.432;2023-04-29T03:26:23;18.17;;;16.42;;
13171;SDS011;6651;53.200;10.432;2023-04-29T03:28:50;17.52;;;15.82;;
13171;SDS011;6651;53.200;10.432;2023-04-29T03:31:16;18.35;;;16.52;;
13171;SDS011;6651;53.200;10.432;2023-04-29T03:33:42;18.75;;;16.92;;
13171;SDS011;6651;53.200;10.432;2023-04-29T03:36:08;19.58;;;17.02;;
13171;SDS011;6651;53.200;10.432;2023-04-29T03:38:34;17.80;;;16.10;;
13171;SDS011;6651;53.200;10.432;2023-04-29T03:41:00;19.05;;;17.25;;
13171;SDS011;6651;53.200;10.432;2023-04-29T03:43:27;19.05;;;17.15;;
13171;SDS011;6651;53.200;10.432;2023-04-29T03:45:53;18.25;;;16.52;;
13171;SDS011;6651;53.200;10.432;2023-04-29T03:48:19;20.05;;;17.92;;
13171;SDS011;6651;53.200;10.432;2023-04-29T03:50:45;20.50;;;18.40;;
13171;SDS011;6651;53.200;10.432;2023-04-29T03:53:12;20.20;;;17.95;;
13171;SDS011;6651;53.200;10.432;2023-04-29T03:55:38;20.73;;;18.65;;
13171;SDS011;6651;53.200;10.432;2023-04-29T03:58:04;20.60;;;18.50;;
13171;SDS011;6651;53.200;10.432;2023-04-29T04:00:30;20.27;;;17.85;;
13171;SDS011;6651;53.200;10.432;2023-04-29T04:02:57;20.88;;;18.77;;
13171;SDS011;6651;53.200;10.432;2023-04-29T04:05:23;19.75;;;17.85;;
13171;SDS011;6651;53.200;10.432;2023-04-29T04:07:52;21.23;;;18.73;;
13171;SDS011;6651;53.200;10.432;2023-04-29T04:10:19;20.73;;;18.65;;
13171;SDS011;6651;53.200;10.432;2023-04-29T04:12:45;21.02;;;18.77;;
13171;SDS011;6651;53.200;10.432;2023-04-29T04:15:14;20.23;;;18.23;;
13171;SDS011;6651;53.200;10.432;2023-04-29T04:17:41;20.30;;;18.08;;
13171;SDS011;6651;53.200;10.432;2023-04-29T04:20:07;20.65;;;18.65;;
13171;SDS011;6651;53.200;10.432;2023-04-29T04:22:33;20.63;;;18.25;;
13171;SDS011;6651;53.200;10.432;2023-04-29T04:24:59;22.10;;;19.67;;
13171;SDS011;6651;53.200;10.432;2023-04-29T04:27:25;19.88;;;17.80;;
13171;SDS011;6651;53.200;10.432;2023-04-29T04:29:54;20.20;;;18.10;;
13171;SDS011;6651;53.200;10.432;2023-04-29T04:32:21;20.40;;;18.40;;
13171;SDS011;6651;53.200;10.432;2023-04-29T04:34:47;20.13;;;18.08;;
13171;SDS011;6651;53.200;10.432;2023-04-29T04:37:13;20.38;;;18.10;;
13171;SDS011;6651;53.200;10.432;2023-04-29T04:39:40;21.27;;;19.08;;
13171;SDS011;6651;53.200;10.432;2023-04-29T04:42:06;20.90;;;18.70;;
13171;SDS011;6651;53.200;10.432;2023-04-29T04:44:32;21.60;;;19.38;;
13171;SDS011;6651;53.200;10.432;2023-04-29T04:46:58;22.08;;;19.80;;
13171;SDS011;6651;53.200;10.432;2023-04-29T04:49:27;21.92;;;19.63;;
13171;SDS011;6651;53.200;10.432;2023-04-29T04:51:53;22.52;;;20.23;;
13171;SDS011;6651;53.200;10.432;2023-04-29T04:54:19;22.10;;;19.80;;
13171;SDS011;6651;53.200;10.432;2023-04-29T04:56:45;23.20;;;20.63;;
13171;SDS011;6651;53.200;10.432;2023-04-29T04:59:12;22.85;;;20.35;;
13171;SDS011;6651;53.200;10.432;2023-04-29T05:01:38;21.95;;;19.85;;
13171;SDS011;6651;53.200;10.432;2023-04-29T05:04:05;21.35;;;19.20;;
13171;SDS011;6651;53.200;10.432;2023-04-29T05:06:31;21.52;;;19.27;;
13171;SDS011;6651;53.200;10.432;2023-04-29T05:08:57;21.08;;;19.13;;
13171;SDS011;6651;53.200;10.432;2023-04-29T05:11:23;20.98;;;18.80;;
13171;SDS011;6651;53.200;10.432;2023-04-29T05:13:49;21.42;;;19.27;;
13171;SDS011;6651;53.200;10.432;2023-04-29T05:16:15;20.60;;;18.50;;
13171;SDS011;6651;53.200;10.432;2023-04-29T05:18:42;21.85;;;19.52;;
13171;SDS011;6651;53.200;10.432;2023-04-29T05:21:09;22.00;;;19.70;;
13171;SDS011;6651;53.200;10.432;2023-04-29T05:23:35;21.23;;;19.10;;
13171;SDS011;6651;53.200;10.432;2023-04-29T05:26:02;20.55;;;18.45;;
13171;SDS011;6651;53.200;10.432;2023-04-29T05:28:28;20.25;;;18.35;;
13171;SDS011;6651;53.200;10.432;2023-04-29T05:30:54;21.58;;;19.50;;
13171;SDS011;6651;53.200;10.432;2023-04-29T05:33:20;22.15;;;19.85;;
13171;SDS011;6651;53.200;10.432;2023-04-29T05:35:46;19.70;;;17.85;;
13171;SDS011;6651;53.200;10.432;2023-04-29T05:38:12;21.60;;;19.08;;
13171;SDS011;6651;53.200;10.432;2023-04-29T05:40:38;20.95;;;18.90;;
13171;SDS011;6651;53.200;10.432;2023-04-29T05:43:05;21.92;;;19.58;;
13171;SDS011;6651;53.200;10.432;2023-04-29T05:45:31;21.50;;;19.45;;
13171;SDS011;6651;53.200;10.432;2023-04-29T05:47:57;22.42;;;20.05;;
13171;SDS011;6651;53.200;10.432;2023-04-29T05:50:23;23.17;;;20.70;;
13171;SDS011;6651;53.200;10.432;2023-04-29T05:52:49;22.48;;;20.15;;
13171;SDS011;6651;53.200;10.432;2023-04-29T05:55:15;22.00;;;19.70;;
13171;SDS011;6651;53.200;10.432;2023-04-29T05:57:42;21.75;;;19.55;;
13171;SDS011;6651;53.200;10.432;2023-04-29T06:00:08;23.20;;;20.88;;
13171;SDS011;6651;53.200;10.432;2023-04-29T06:02:34;21.63;;;19.58;;
13171;SDS011;6651;53.200;10.432;2023-04-29T06:05:00;21.25;;;19.05;;
13171;SDS011;6651;53.200;10.432;2023-04-29T06:07:26;22.02;;;19.83;;
13171;SDS011;6651;53.200;10.432;2023-04-29T06:09:52;21.70;;;19.50;;
13171;SDS011;6651;53.200;10.432;2023-04-29T06:12:18;22.80;;;20.40;;
13171;SDS011;6651;53.200;10.432;2023-04-29T06:14:44;23.55;;;21.02;;
13171;SDS011;6651;53.200;10.432;2023-04-29T06:17:11;22.63;;;20.20;;
13171;SDS011;6651;53.200;10.432;2023-04-29T06:19:37;25.15;;;21.15;;
13171;SDS011;6651;53.200;10.432;2023-04-29T06:22:03;24.02;;;20.50;;
13171;SDS011;6651;53.200;10.432;2023-04-29T06:24:29;21.38;;;19.23;;
13171;SDS011;6651;53.200;10.432;2023-04-29T06:26:55;21.80;;;19.33;;
13171;SDS011;6651;53.200;10.432;2023-04-29T06:29:21;20.92;;;18.83;;
13171;SDS011;6651;53.200;10.432;2023-04-29T06:31:47;19.83;;;17.85;;
13171;SDS011;6651;53.200;10.432;2023-04-29T06:34:13;21.27;;;19.17;;
13171;SDS011;6651;53.200;10.432;2023-04-29T06:36:39;20.08;;;18.05;;
13171;SDS011;6651;53.200;10.432;2023-04-29T06:39:05;19.60;;;17.58;;
13171;SDS011;6651;53.200;10.432;2023-04-29T06:41:31;19.77;;;17.67;;
13171;SDS011;6651;53.200;10.432;2023-04-29T06:43:58;20.15;;;18.10;;
13171;SDS011;6651;53.200;10.432;2023-04-29T06:46:24;20.38;;;18.17;;
13171;SDS011;6651;53.200;10.432;2023-04-29T06:48:51;21.27;;;19.02;;
13171;SDS011;6651;53.200;10.432;2023-04-29T06:51:17;21.17;;;19.05;;
13171;SDS011;6651;53.200;10.432;2023-04-29T06:53:43;20.40;;;18.50;;
13171;SDS011;6651;53.200;10.432;2023-04-29T06:56:10;20.63;;;18.55;;
13171;SDS011;6651;53.200;10.432;2023-04-29T06:58:36;19.65;;;17.75;;
13171;SDS011;6651;53.200;10.432;2023-04-29T07:01:03;18.42;;;16.63;;
13171;SDS011;6651;53.200;10.432;2023-04-29T07:03:31;18.77;;;16.92;;
13171;SDS011;6651;53.200;10.432;2023-04-29T07:05:57;19.55;;;17.58;;
13171;SDS011;6651;53.200;10.432;2023-04-29T07:08:23;19.05;;;17.13;;
13171;SDS011;6651;53.200;10.432;2023-04-29T07:10:55;17.67;;;15.80;;
13171;SDS011;6651;53.200;10.432;2023-04-29T07:13:22;16.52;;;14.93;;
13171;SDS011;6651;53.200;10.432;2023-04-29T07:15:48;15.68;;;14.10;;
13171;SDS011;6651;53.200;10.432;2023-04-29T07:18:14;17.08;;;14.93;;
13171;SDS011;6651;53.200;10.432;2023-04-29T07:20:40;14.65;;;13.20;;
13171;SDS011;6651;53.200;10.432;2023-04-29T07:23:07;14.07;;;12.57;;
13171;SDS011;6651;53.200;10.432;2023-04-29T07:25:33;13.55;;;12.00;;
13171;SDS011;6651;53.200;10.432;2023-04-29T07:27:59;14.65;;;11.95;;
13171;SDS011;6651;53.200;10.432;2023-04-29T07:30:25;12.68;;;11.40;;
13171;SDS011;6651;53.200;10.432;2023-04-29T07:32:52;12.32;;;11.13;;
13171;SDS011;6651;53.200;10.432;2023-04-29T07:35:18;13.52;;;10.50;;
13171;SDS011;6651;53.200;10.432;2023-04-29T07:37:44;12.00;;;10.80;;
13171;SDS011;6651;53.200;10.432;2023-04-29T07:40:10;12.88;;;10.23;;
13171;SDS011;6651;53.200;10.432;2023-04-29T07:42:37;11.30;;;10.10;;
13171;SDS011;6651;53.200;10.432;2023-04-29T07:45:03;11.43;;;9.85;;
13171;SDS011;6651;53.200;10.432;2023-04-29T07:47:29;10.98;;;9.60;;
13171;SDS011;6651;53.200;10.432;2023-04-29T07:49:55;11.93;;;9.35;;
13171;SDS011;6651;53.200;10.432;2023-04-29T07:52:22;11.93;;;9.80;;
13171;SDS011;6651;53.200;10.432;2023-04-29T07:54:48;11.65;;;9.60;;
13171;SDS011;6651;53.200;10.432;2023-04-29T07:57:14;9.73;;;8.73;;
13171;SDS011;6651;53.200;10.432;2023-04-29T07:59:40;10.45;;;9.20;;
13171;SDS011;6651;53.200;10.432;2023-04-29T08:02:06;11.07;;;9.18;;
13171;SDS011;6651;53.200;10.432;2023-04-29T08:04:32;12.88;;;8.90;;
13171;SDS011;6651;53.200;10.432;2023-04-29T08:06:58;12.38;;;8.35;;
13171;SDS011;6651;53.200;10.432;2023-04-29T08:09:24;12.30;;;8.30;;
13171;SDS011;6651;53.200;10.432;2023-04-29T08:11:50;10.77;;;8.15;;
13171;SDS011;6651;53.200;10.432;2023-04-29T08:14:16;10.48;;;8.13;;
13171;SDS011;6651;53.200;10.432;2023-04-29T08:16:42;11.45;;;8.15;;
13171;SDS011;6651;53.200;10.432;2023-04-29T08:19:08;10.30;;;8.48;;
13171;SDS011;6651;53.200;10.432;2023-04-29T08:21:34;10.27;;;8.55;;
13171;SDS011;6651;53.200;10.432;2023-04-29T08:24:00;9.40;;;8.20;;
13171;SDS011;6651;53.200;10.432;2023-04-29T08:26:26;9.75;;;7.80;;
13171;SDS011;6651;53.200;10.432;2023-04-29T08:28:52;10.07;;;7.78;;
13171;SDS011;6651;53.200;10.432;2023-04-29T08:31:18;12.25;;;8.20;;
13171;SDS011;6651;53.200;10.432;2023-04-29T08:33:45;10.23;;;7.70;;
13171;SDS011;6651;53.200;10.432;2023-04-29T08:36:11;10.18;;;7.38;;
13171;SDS011;6651;53.200;10.432;2023-04-29T08:38:37;9.25;;;7.05;;
13171;SDS011;6651;53.200;10.432;2023-04-29T08:41:03;9.35;;;7.10;;
13171;SDS011;6651;53.200;10.432;2023-04-29T08:43:33;10.18;;;8.18;;
13171;SDS011;6651;53.200;10.432;2023-04-29T08:46:01;9.05;;;7.18;;
13171;SDS011;6651;53.200;10.432;2023-04-29T08:48:28;10.35;;;7.88;;
13171;SDS011;6651;53.200;10.432;2023-04-29T08:50:54;10.48;;;7.53;;
13171;SDS011;6651;53.200;10.432;2023-04-29T08:53:22;9.70;;;7.75;;
13171;SDS011;6651;53.200;10.432;2023-04-29T08:55:48;9.35;;;7.38;;
13171;SDS011;6651;53.200;10.432;2023-04-29T08:58:15;8.63;;;6.70;;
13171;SDS011;6651;53.200;10.432;2023-04-29T09:00:41;10.63;;;7.60;;
13171;SDS011;6651;53.200;10.432;2023-04-29T09:03:13;11.30;;;8.05;;
13171;SDS011;6651;53.200;10.432;2023-04-29T09:05:40;9.65;;;7.38;;
13171;SDS011;6651;53.200;10.432;2023-04-29T09:08:06;8.80;;;7.13;;
13171;SDS011;6651;53.200;10.432;2023-04-29T09:10:35;9.63;;;6.93;;
13171;SDS011;6651;53.200;10.432;2023-04-29T09:13:01;10.15;;;7.70;;
13171;SDS011;6651;53.200;10.432;2023-04-29T09:15:27;8.85;;;7.05;;
13171;SDS011;6651;53.200;10.432;2023-04-29T09:17:53;11.25;;;7.57;;
13171;SDS011;6651;53.200;10.432;2023-04-29T09:22:49;8.82;;;6.95;;
13171;SDS011;6651;53.200;10.432;2023-04-29T09:25:15;9.90;;;7.00;;
13171;SDS011;6651;53.200;10.432;2023-04-29T09:27:41;10.88;;;7.85;;
13171;SDS011;6651;53.200;10.432;2023-04-29T09:30:08;8.63;;;7.07;;
13171;SDS011;6651;53.200;10.432;2023-04-29T09:32:34;10.25;;;6.97;;
13171;SDS011;6651;53.200;10.432;2023-04-29T09:37:45;10.55;;;7.10;;
13171;SDS011;6651;53.200;10.432;2023-04-29T09:40:30;9.73;;;6.38;;
13171;SDS011;6651;53.200;10.432;2023-04-29T09:42:57;9.55;;;7.00;;
13171;SDS011;6651;53.200;10.432;2023-04-29T09:45:33;8.23;;;5.90;;
13171;SDS011;6651;53.200;10.432;2023-04-29T09:48:01;8.02;;;6.25;;
13171;SDS011;6651;53.200;10.432;2023-04-29T09:50:27;8.48;;;6.50;;
13171;SDS011;6651;53.200;10.432;2023-04-29T09:52:53;10.50;;;6.30;;
13171;SDS011;6651;53.200;10.432;2023-04-29T09:55:19;8.10;;;6.20;;
13171;SDS011;6651;53.200;10.432;2023-04-29T09:57:46;8.40;;;6.50;;
13171;SDS011;6651;53.200;10.432;2023-04-29T10:00:12;9.25;;;6.35;;
13171;SDS011;6651;53.200;10.432;2023-04-29T10:02:42;6.85;;;5.95;;
13171;SDS011;6651;53.200;10.432;2023-04-29T10:05:11;11.20;;;6.90;;
13171;SDS011;6651;53.200;10.432;2023-04-29T10:07:38;9.48;;;6.75;;
13171;SDS011;6651;53.200;10.432;2023-04-29T10:10:05;8.88;;;6.53;;
13171;SDS011;6651;53.200;10.432;2023-04-29T10:12:32;6.63;;;5.80;;
13171;SDS011;6651;53.200;10.432;2023-04-29T10:17:35;9.02;;;7.00;;
13171;SDS011;6651;53.200;10.432;2023-04-29T10:20:02;9.98;;;6.45;;
13171;SDS011;6651;53.200;10.432;2023-04-29T10:22:47;9.60;;;6.75;;
13171;SDS011;6651;53.200;10.432;2023-04-29T10:25:17;9.98;;;6.78;;
13171;SDS011;6651;53.200;10.432;2023-04-29T10:27:44;9.75;;;6.97;;
13171;SDS011;6651;53.200;10.432;2023-04-29T10:30:14;10.57;;;6.82;;
13171;SDS011;6651;53.200;10.432;2023-04-29T10:32:41;7.82;;;6.20;;
13171;SDS011;6651;53.200;10.432;2023-04-29T10:35:11;8.57;;;7.15;;
13171;SDS011;6651;53.200;10.432;2023-04-29T10:37:40;8.48;;;6.88;;
13171;SDS011;6651;53.200;10.432;2023-04-29T10:40:09;8.80;;;6.22;;
13171;SDS011;6651;53.200;10.432;2023-04-29T10:42:42;8.13;;;6.22;;
13171;SDS011;6651;53.200;10.432;2023-04-29T10:50:40;9.52;;;6.65;;
13171;SDS011;6651;53.200;10.432;2023-04-29T10:53:06;8.80;;;6.57;;
13171;SDS011;6651;53.200;10.432;2023-04-29T10:55:36;7.72;;;6.47;;
13171;SDS011;6651;53.200;10.432;2023-04-29T10:58:02;10.65;;;7.07;;
13171;SDS011;6651;53.200;10.432;2023-04-29T11:00:30;8.98;;;6.50;;
13171;SDS011;6651;53.200;10.432;2023-04-29T11:02:57;8.20;;;6.32;;
13171;SDS011;6651;53.200;10.432;2023-04-29T11:05:33;9.45;;;6.93;;
13171;SDS011;6651;53.200;10.432;2023-04-29T11:08:09;8.25;;;6.35;;
13171;SDS011;6651;53.200;10.432;2023-04-29T11:10:37;8.93;;;6.68;;
13171;SDS011;6651;53.200;10.432;2023-04-29T11:15:47;8.32;;;6.57;;
13171;SDS011;6651;53.200;10.432;2023-04-29T11:18:13;8.65;;;6.43;;
13171;SDS011;6651;53.200;10.432;2023-04-29T11:23:24;10.18;;;6.20;;
13171;SDS011;6651;53.200;10.432;2023-04-29T11:25:50;8.93;;;6.78;;
13171;SDS011;6651;53.200;10.432;2023-04-29T11:28:16;7.50;;;6.07;;
13171;SDS011;6651;53.200;10.432;2023-04-29T11:30:43;8.50;;;6.78;;
13171;SDS011;6651;53.200;10.432;2023-04-29T11:33:10;9.32;;;6.63;;
13171;SDS011;6651;53.200;10.432;2023-04-29T11:35:37;8.07;;;6.47;;
13171;SDS011;6651;53.200;10.432;2023-04-29T11:38:04;9.02;;;6.57;;
13171;SDS011;6651;53.200;10.432;2023-04-29T11:40:31;8.23;;;6.35;;
13171;SDS011;6651;53.200;10.432;2023-04-29T11:42:57;7.85;;;6.13;;
13171;SDS011;6651;53.200;10.432;2023-04-29T11:45:24;7.47;;;6.10;;
13171;SDS011;6651;53.200;10.432;2023-04-29T11:47:50;9.57;;;6.30;;
13171;SDS011;6651;53.200;10.432;2023-04-29T11:50:16;6.80;;;5.80;;
13171;SDS011;6651;53.200;10.432;2023-04-29T11:52:44;8.15;;;5.80;;
13171;SDS011;6651;53.200;10.432;2023-04-29T11:55:11;6.72;;;6.00;;
13171;SDS011;6651;53.200;10.432;2023-04-29T11:57:38;6.75;;;5.30;;
13171;SDS011;6651;53.200;10.432;2023-04-29T12:00:07;9.32;;;5.65;;
13171;SDS011;6651;53.200;10.432;2023-04-29T12:02:36;9.70;;;6.35;;
13171;SDS011;6651;53.200;10.432;2023-04-29T12:05:06;7.38;;;5.57;;
13171;SDS011;6651;53.200;10.432;2023-04-29T12:07:38;9.70;;;5.95;;
13171;SDS011;6651;53.200;10.432;2023-04-29T12:10:08;6.88;;;5.40;;
13171;SDS011;6651;53.200;10.432;2023-04-29T12:12:34;6.03;;;5.30;;
13171;SDS011;6651;53.200;10.432;2023-04-29T12:15:03;7.25;;;4.90;;
13171;SDS011;6651;53.200;10.432;2023-04-29T12:17:30;7.68;;;5.13;;
13171;SDS011;6651;53.200;10.432;2023-04-29T12:19:56;7.57;;;5.47;;
13171;SDS011;6651;53.200;10.432;2023-04-29T12:22:22;5.80;;;5.20;;
13171;SDS011;6651;53.200;10.432;2023-04-29T12:24:55;7.63;;;4.63;;
13171;SDS011;6651;53.200;10.432;2023-04-29T12:27:21;5.78;;;5.10;;
13171;SDS011;6651;53.200;10.432;2023-04-29T12:29:50;7.85;;;5.45;;
13171;SDS011;6651;53.200;10.432;2023-04-29T12:32:16;6.22;;;5.18;;
13171;SDS011;6651;53.200;10.432;2023-04-29T12:34:44;6.80;;;5.60;;
13171;SDS011;6651;53.200;10.432;2023-04-29T12:37:11;8.00;;;5.65;;
13171;SDS011;6651;53.200;10.432;2023-04-29T12:39:37;7.50;;;5.00;;
13171;SDS011;6651;53.200;10.432;2023-04-29T12:42:03;7.45;;;5.00;;
13171;SDS011;6651;53.200;10.432;2023-04-29T12:44:35;5.85;;;5.05;;
13171;SDS011;6651;53.200;10.432;2023-04-29T12:47:06;6.78;;;5.70;;
13171;SDS011;6651;53.200;10.432;2023-04-29T12:49:33;8.18;;;6.03;;
13171;SDS011;6651;53.200;10.432;2023-04-29T12:51:59;7.40;;;6.15;;
13171;SDS011;6651;53.200;10.432;2023-04-29T12:54:26;7.03;;;5.88;;
13171;SDS011;6651;53.200;10.432;2023-04-29T12:56:52;8.15;;;6.03;;
13171;SDS011;6651;53.200;10.432;2023-04-29T12:59:18;6.60;;;5.88;;
13171;SDS011;6651;53.200;10.432;2023-04-29T13:01:44;7.88;;;6.43;;
13171;SDS011;6651;53.200;10.432;2023-04-29T13:04:10;8.57;;;6.20;;
13171;SDS011;6651;53.200;10.432;2023-04-29T13:06:36;8.98;;;6.40;;
13171;SDS011;6651;53.200;10.432;2023-04-29T13:09:06;9.25;;;6.53;;
13171;SDS011;6651;53.200;10.432;2023-04-29T13:11:36;9.55;;;6.53;;
13171;SDS011;6651;53.200;10.432;2023-04-29T13:14:02;7.03;;;5.53;;
13171;SDS011;6651;53.200;10.432;2023-04-29T13:16:30;7.57;;;5.50;;
13171;SDS011;6651;53.200;10.432;2023-04-29T13:18:57;9.73;;;5.35;;
13171;SDS011;6651;53.200;10.432;2023-04-29T13:21:23;6.53;;;5.35;;
13171;SDS011;6651;53.200;10.432;2023-04-29T13:23:49;6.28;;;5.40;;
13171;SDS011;6651;53.200;10.432;2023-04-29T13:26:16;6.22;;;5.30;;
13171;SDS011;6651;53.200;10.432;2023-04-29T13:28:42;7.82;;;6.00;;
13171;SDS011;6651;53.200;10.432;2023-04-29T13:31:08;7.75;;;6.30;;
13171;SDS011;6651;53.200;10.432;2023-04-29T13:33:34;7.18;;;5.47;;
13171;SDS011;6651;53.200;10.432;2023-04-29T13:36:00;6.95;;;5.43;;
13171;SDS011;6651;53.200;10.432;2023-04-29T13:38:26;6.50;;;5.20;;
13171;SDS011;6651;53.200;10.432;2023-04-29T13:40:52;6.65;;;5.13;;
13171;SDS011;6651;53.200;10.432;2023-04-29T13:43:19;6.75;;;5.05;;
13171;SDS011;6651;53.200;10.432;2023-04-29T13:45:45;7.55;;;5.55;;
13171;SDS011;6651;53.200;10.432;2023-04-29T13:48:11;7.35;;;5.70;;
13171;SDS011;6651;53.200;10.432;2023-04-29T13:50:37;6.53;;;5.82;;
13171;SDS011;6651;53.200;10.432;2023-04-29T13:53:05;6.32;;;5.35;;
13171;SDS011;6651;53.200;10.432;2023-04-29T13:55:32;8.45;;;5.93;;
13171;SDS011;6651;53.200;10.432;2023-04-29T13:58:01;6.82;;;5.50;;
13171;SDS011;6651;53.200;10.432;2023-04-29T14:00:27;6.05;;;5.28;;
13171;SDS011;6651;53.200;10.432;2023-04-29T14:02:54;7.30;;;5.50;;
13171;SDS011;6651;53.200;10.432;2023-04-29T14:05:20;5.78;;;4.63;;
13171;SDS011;6651;53.200;10.432;2023-04-29T14:07:46;6.88;;;4.95;;
13171;SDS011;6651;53.200;10.432;2023-04-29T14:10:13;6.93;;;4.90;;
13171;SDS011;6651;53.200;10.432;2023-04-29T14:12:39;7.05;;;4.57;;
13171;SDS011;6651;53.200;10.432;2023-04-29T14:15:06;7.60;;;4.78;;
13171;SDS011;6651;53.200;10.432;2023-04-29T14:17:32;6.70;;;4.60;;
13171;SDS011;6651;53.200;10.432;2023-04-29T14:19:58;5.35;;;4.60;;
13171;SDS011;6651;53.200;10.432;2023-04-29T14:22:24;6.88;;;4.40;;
13171;SDS011;6651;53.200;10.432;2023-04-29T14:24:51;6.20;;;4.32;;
13171;SDS011;6651;53.200;10.432;2023-04-29T14:27:17;4.97;;;4.00;;
13171;SDS011;6651;53.200;10.432;2023-04-29T14:29:43;5.72;;;4.07;;
13171;SDS011;6651;53.200;10.432;2023-04-29T14:32:10;5.65;;;4.00;;
13171;SDS011;6651;53.200;10.432;2023-04-29T14:34:36;6.75;;;4.05;;
13171;SDS011;6651;53.200;10.432;2023-04-29T14:37:02;6.78;;;4.20;;
13171;SDS011;6651;53.200;10.432;2023-04-29T14:39:28;5.85;;;4.03;;
13171;SDS011;6651;53.200;10.432;2023-04-29T14:41:54;6.32;;;4.30;;
13171;SDS011;6651;53.200;10.432;2023-04-29T14:44:20;5.38;;;4.00;;
13171;SDS011;6651;53.200;10.432;2023-04-29T14:46:46;6.18;;;3.90;;
13171;SDS011;6651;53.200;10.432;2023-04-29T14:49:12;5.75;;;3.80;;
13171;SDS011;6651;53.200;10.432;2023-04-29T14:51:38;6.28;;;4.00;;
13171;SDS011;6651;53.200;10.432;2023-04-29T14:54:04;7.18;;;4.00;;
13171;SDS011;6651;53.200;10.432;2023-04-29T14:56:31;5.90;;;3.88;;
13171;SDS011;6651;53.200;10.432;2023-04-29T14:58:57;7.35;;;4.00;;
13171;SDS011;6651;53.200;10.432;2023-04-29T15:01:23;7.03;;;4.00;;
13171;SDS011;6651;53.200;10.432;2023-04-29T15:03:51;5.22;;;3.15;;
13171;SDS011;6651;53.200;10.432;2023-04-29T15:06:17;4.40;;;2.78;;
13171;SDS011;6651;53.200;10.432;2023-04-29T15:08:43;3.78;;;2.38;;